sensor_id;sensor_type;location;lat;lon;timestamp;pressure;altitude;pressure_sealevel;temperature;humidity
56950;BME280;74437;50.080;19.924;2024-02-26T00:00:58;98075.88;;;5.52;75.08
56950;BME280;74437;50.080;19.924;2024-02-26T00:03:23;98091.22;;;5.51;75.00
56950;BME280;74437;50.080;19.924;2024-02-26T00:05:48;98090.97;;;5.53;75.58
56950;BME280;74437;50.080;19.924;2024-02-26T00:08:14;98097.28;;;5.59;75.91
56950;BME280;74437;50.080;19.924;2024-02-26T00:10:39;98096.81;;;5.62;75.27
56950;BME280;74437;50.080;19.924;2024-02-26T00:13:04;98100.28;;;5.62;75.43
56950;BME280;74437;50.080;19.924;2024-02-26T00:15:30;98105.44;;;5.64;75.83
56950;BME280;74437;50.080;19.924;2024-02-26T00:17:55;98101.59;;;5.60;75.14
56950;BME280;74437;50.080;19.924;2024-02-26T00:20:20;98087.22;;;5.54;75.71
56950;BME280;74437;50.080;19.924;2024-02-26T00:22:46;98098.91;;;5.60;75.45
56950;BME280;74437;50.080;19.924;2024-02-26T00:25:11;98092.03;;;5.52;76.25
56950;BME280;74437;50.080;19.924;2024-02-26T00:27:37;98059.84;;;5.28;75.75
56950;BME280;74437;50.080;19.924;2024-02-26T00:30:04;98091.47;;;5.50;76.17
56950;BME280;74437;50.080;19.924;2024-02-26T00:32:30;98104.41;;;5.53;77.01
56950;BME280;74437;50.080;19.924;2024-02-26T00:34:55;98097.31;;;5.47;76.82
56950;BME280;74437;50.080;19.924;2024-02-26T00:37:21;98095.59;;;5.41;76.60
56950;BME280;74437;50.080;19.924;2024-02-26T00:39:46;98090.44;;;5.39;77.35
56950;BME280;74437;50.080;19.924;2024-02-26T00:42:12;98058.47;;;5.14;77.04
56950;BME280;74437;50.080;19.924;2024-02-26T00:44:37;98083.81;;;5.30;77.42
56950;BME280;74437;50.080;19.924;2024-02-26T00:47:02;98081.97;;;5.18;77.82
56950;BME280;74437;50.080;19.924;2024-02-26T00:49:28;98082.06;;;5.12;77.66
56950;BME280;74437;50.080;19.924;2024-02-26T00:51:53;98085.13;;;5.03;78.58
56950;BME280;74437;50.080;19.924;2024-02-26T00:54:18;98059.69;;;4.82;78.20
56950;BME280;74437;50.080;19.924;2024-02-26T00:56:44;98079.88;;;4.85;78.67
56950;BME280;74437;50.080;19.924;2024-02-26T00:59:09;98093.31;;;4.85;79.52
56950;BME280;74437;50.080;19.924;2024-02-26T01:01:35;98087.81;;;4.80;78.64
56950;BME280;74437;50.080;19.924;2024-02-26T01:04:00;98086.06;;;4.73;79.43
56950;BME280;74437;50.080;19.924;2024-02-26T01:06:25;98088.66;;;4.68;79.52
56950;BME280;74437;50.080;19.924;2024-02-26T01:08:51;98084.22;;;4.62;80.29
56950;BME280;74437;50.080;19.924;2024-02-26T01:11:16;98091.22;;;4.63;80.34
56950;BME280;74437;50.080;19.924;2024-02-26T01:13:41;98054.44;;;4.40;80.68
56950;BME280;74437;50.080;19.924;2024-02-26T01:16:07;98091.44;;;4.50;80.68
56950;BME280;74437;50.080;19.924;2024-02-26T01:18:32;98087.47;;;4.40;81.33
56950;BME280;74437;50.080;19.924;2024-02-26T01:20:57;98100.75;;;4.35;81.33
56950;BME280;74437;50.080;19.924;2024-02-26T01:23:23;98094.56;;;4.23;81.82
56950;BME280;74437;50.080;19.924;2024-02-26T01:25:48;98102.38;;;4.24;81.71
56950;BME280;74437;50.080;19.924;2024-02-26T01:28:14;98102.03;;;4.21;82.18
56950;BME280;74437;50.080;19.924;2024-02-26T01:30:39;98104.94;;;4.19;81.53
56950;BME280;74437;50.080;19.924;2024-02-26T01:33:04;98083.69;;;4.06;81.96
56950;BME280;74437;50.080;19.924;2024-02-26T01:35:30;98101.31;;;4.13;82.10
56950;BME280;74437;50.080;19.924;2024-02-26T01:37:55;98099.88;;;4.11;81.66
56950;BME280;74437;50.080;19.924;2024-02-26T01:40:21;98096.03;;;4.07;81.80
56950;BME280;74437;50.080;19.924;2024-02-26T01:42:46;98091.34;;;4.02;82.03
56950;BME280;74437;50.080;19.924;2024-02-26T01:45:16;98093.44;;;4.00;82.33
56950;BME280;74437;50.080;19.924;2024-02-26T01:47:51;98094.50;;;3.99;81.45
56950;BME280;74437;50.080;19.924;2024-02-26T01:50:17;98050.78;;;3.68;81.80
56950;BME280;74437;50.080;19.924;2024-02-26T01:52:46;98094.81;;;3.91;82.31
56950;BME280;74437;50.080;19.924;2024-02-26T01:55:13;98092.03;;;3.85;82.51
56950;BME280;74437;50.080;19.924;2024-02-26T01:57:44;98099.03;;;3.86;81.98
56950;BME280;74437;50.080;19.924;2024-02-26T02:00:11;98089.66;;;3.77;82.71
56950;BME280;74437;50.080;19.924;2024-02-26T02:02:38;98105.28;;;3.80;83.27
56950;BME280;74437;50.080;19.924;2024-02-26T02:05:05;98100.97;;;3.79;82.54
56950;BME280;74437;50.080;19.924;2024-02-26T02:07:31;98101.63;;;3.75;82.70
56950;BME280;74437;50.080;19.924;2024-02-26T02:09:57;98092.66;;;3.69;82.99
56950;BME280;74437;50.080;19.924;2024-02-26T02:12:23;98092.06;;;3.67;82.93
56950;BME280;74437;50.080;19.924;2024-02-26T02:14:48;98076.56;;;3.50;83.90
56950;BME280;74437;50.080;19.924;2024-02-26T02:17:14;98033.75;;;3.13;83.57
56950;BME280;74437;50.080;19.924;2024-02-26T02:19:39;98023.22;;;3.00;84.14
56950;BME280;74437;50.080;19.924;2024-02-26T02:22:04;98090.91;;;3.44;83.84
56950;BME280;74437;50.080;19.924;2024-02-26T02:24:29;98103.47;;;3.43;84.34
56950;BME280;74437;50.080;19.924;2024-02-26T02:26:55;98103.47;;;3.43;84.30
56950;BME280;74437;50.080;19.924;2024-02-26T02:29:20;98105.81;;;3.40;84.71
56950;BME280;74437;50.080;19.924;2024-02-26T02:31:46;98076.81;;;3.30;85.35
56950;BME280;74437;50.080;19.924;2024-02-26T02:34:12;98081.88;;;3.38;85.15
56950;BME280;74437;50.080;19.924;2024-02-26T02:36:53;98107.34;;;3.48;84.51
56950;BME280;74437;50.080;19.924;2024-02-26T02:39:19;98102.00;;;3.48;85.08
56950;BME280;74437;50.080;19.924;2024-02-26T02:41:44;98099.06;;;3.49;85.15
56950;BME280;74437;50.080;19.924;2024-02-26T02:44:10;98088.59;;;3.48;85.08
56950;BME280;74437;50.080;19.924;2024-02-26T02:46:35;98095.94;;;3.52;84.39
56950;BME280;74437;50.080;19.924;2024-02-26T02:49:01;98100.69;;;3.50;84.24
56950;BME280;74437;50.080;19.924;2024-02-26T02:51:26;98108.44;;;3.58;84.20
56950;BME280;74437;50.080;19.924;2024-02-26T02:53:52;98107.03;;;3.56;84.35
56950;BME280;74437;50.080;19.924;2024-02-26T02:56:17;98078.75;;;3.41;84.25
56950;BME280;74437;50.080;19.924;2024-02-26T02:58:43;98103.19;;;3.52;83.66
56950;BME280;74437;50.080;19.924;2024-02-26T03:01:08;98069.84;;;3.29;84.28
56950;BME280;74437;50.080;19.924;2024-02-26T03:03:33;98084.28;;;3.28;84.24
56950;BME280;74437;50.080;19.924;2024-02-26T03:05:59;98095.22;;;3.26;84.24
56950;BME280;74437;50.080;19.924;2024-02-26T03:08:24;98089.66;;;3.09;84.53
56950;BME280;74437;50.080;19.924;2024-02-26T03:10:51;98104.00;;;3.15;84.42
56950;BME280;74437;50.080;19.924;2024-02-26T03:13:16;98084.06;;;2.92;84.80
56950;BME280;74437;50.080;19.924;2024-02-26T03:15:42;98101.19;;;2.91;85.49
56950;BME280;74437;50.080;19.924;2024-02-26T03:18:07;98074.00;;;2.69;85.54
56950;BME280;74437;50.080;19.924;2024-02-26T03:20:33;98108.53;;;2.77;86.18
56950;BME280;74437;50.080;19.924;2024-02-26T03:22:58;98095.41;;;2.69;86.16
56950;BME280;74437;50.080;19.924;2024-02-26T03:25:24;98098.28;;;2.67;86.79
56950;BME280;74437;50.080;19.924;2024-02-26T03:27:49;98094.59;;;2.68;87.34
56950;BME280;74437;50.080;19.924;2024-02-26T03:30:15;98097.50;;;2.67;86.22
56950;BME280;74437;50.080;19.924;2024-02-26T03:32:40;98097.13;;;2.63;86.84
56950;BME280;74437;50.080;19.924;2024-02-26T03:35:06;98101.28;;;2.59;86.79
56950;BME280;74437;50.080;19.924;2024-02-26T03:37:32;98051.91;;;2.30;86.54
56950;BME280;74437;50.080;19.924;2024-02-26T03:39:58;98083.47;;;2.46;87.10
56950;BME280;74437;50.080;19.924;2024-02-26T03:42:23;98080.78;;;2.46;86.93
56950;BME280;74437;50.080;19.924;2024-02-26T03:44:49;98075.50;;;2.40;86.97
56950;BME280;74437;50.080;19.924;2024-02-26T03:47:15;98073.94;;;2.32;87.40
56950;BME280;74437;50.080;19.924;2024-02-26T03:49:41;98073.97;;;2.25;87.90
56950;BME280;74437;50.080;19.924;2024-02-26T03:52:06;98061.69;;;2.17;87.72
56950;BME280;74437;50.080;19.924;2024-02-26T03:54:32;98075.66;;;2.19;88.01
56950;BME280;74437;50.080;19.924;2024-02-26T03:56:57;98075.66;;;2.19;87.39
56950;BME280;74437;50.080;19.924;2024-02-26T03:59:22;98067.47;;;2.14;87.74
56950;BME280;74437;50.080;19.924;2024-02-26T04:01:50;98057.25;;;2.04;88.27
56950;BME280;74437;50.080;19.924;2024-02-26T04:04:15;98057.25;;;2.04;88.51
56950;BME280;74437;50.080;19.924;2024-02-26T04:06:45;97958.63;;;1.39;88.75
56950;BME280;74437;50.080;19.924;2024-02-26T04:09:11;98061.03;;;1.97;88.78
56950;BME280;74437;50.080;19.924;2024-02-26T04:11:36;98060.19;;;1.96;89.66
56950;BME280;74437;50.080;19.924;2024-02-26T04:14:01;98059.34;;;2.02;89.10
56950;BME280;74437;50.080;19.924;2024-02-26T04:16:28;98065.66;;;2.08;89.70
56950;BME280;74437;50.080;19.924;2024-02-26T04:18:53;98066.50;;;2.08;88.78
56950;BME280;74437;50.080;19.924;2024-02-26T04:21:19;98070.41;;;2.06;88.58
56950;BME280;74437;50.080;19.924;2024-02-26T04:23:45;98049.94;;;1.93;88.50
56950;BME280;74437;50.080;19.924;2024-02-26T04:26:10;98063.09;;;1.95;88.40
56950;BME280;74437;50.080;19.924;2024-02-26T04:28:36;98059.81;;;1.92;88.45
56950;BME280;74437;50.080;19.924;2024-02-26T04:31:01;98055.72;;;1.90;89.17
56950;BME280;74437;50.080;19.924;2024-02-26T04:33:27;98034.84;;;1.73;88.70
56950;BME280;74437;50.080;19.924;2024-02-26T04:35:52;98063.41;;;1.80;88.68
56950;BME280;74437;50.080;19.924;2024-02-26T04:38:18;98068.16;;;1.77;89.88
56950;BME280;74437;50.080;19.924;2024-02-26T04:40:43;98068.16;;;1.77;89.02
56950;BME280;74437;50.080;19.924;2024-02-26T04:43:08;98056.63;;;1.77;89.04
56950;BME280;74437;50.080;19.924;2024-02-26T04:45:34;98042.47;;;1.70;89.47
56950;BME280;74437;50.080;19.924;2024-02-26T04:47:59;97990.72;;;1.32;89.38
56950;BME280;74437;50.080;19.924;2024-02-26T04:50:25;98055.63;;;1.71;89.79
56950;BME280;74437;50.080;19.924;2024-02-26T04:52:50;98057.47;;;1.71;89.88
56950;BME280;74437;50.080;19.924;2024-02-26T04:55:15;98043.97;;;1.59;89.76
56950;BME280;74437;50.080;19.924;2024-02-26T04:57:41;98055.84;;;1.70;89.57
56950;BME280;74437;50.080;19.924;2024-02-26T05:00:06;98056.25;;;1.67;89.32
56950;BME280;74437;50.080;19.924;2024-02-26T05:02:33;98051.34;;;1.63;88.86
56950;BME280;74437;50.080;19.924;2024-02-26T05:05:04;98049.31;;;1.59;89.65
56950;BME280;74437;50.080;19.924;2024-02-26T05:07:29;98045.25;;;1.49;89.36
56950;BME280;74437;50.080;19.924;2024-02-26T05:09:54;98048.97;;;1.48;90.27
56950;BME280;74437;50.080;19.924;2024-02-26T05:12:21;98001.88;;;1.15;89.92
56950;BME280;74437;50.080;19.924;2024-02-26T05:14:46;98051.03;;;1.46;90.24
56950;BME280;74437;50.080;19.924;2024-02-26T05:17:11;98045.69;;;1.46;89.75
56950;BME280;74437;50.080;19.924;2024-02-26T05:19:37;98051.47;;;1.43;89.81
56950;BME280;74437;50.080;19.924;2024-02-26T05:22:02;98051.91;;;1.40;90.15
56950;BME280;74437;50.080;19.924;2024-02-26T05:24:27;98046.56;;;1.33;90.41
56950;BME280;74437;50.080;19.924;2024-02-26T05:26:53;98030.19;;;1.23;89.73
56950;BME280;74437;50.080;19.924;2024-02-26T05:29:19;98052.56;;;1.29;89.77
56950;BME280;74437;50.080;19.924;2024-02-26T05:31:45;98059.31;;;1.31;90.29
56950;BME280;74437;50.080;19.924;2024-02-26T05:34:10;98022.06;;;1.04;89.73
56950;BME280;74437;50.080;19.924;2024-02-26T05:36:36;97995.41;;;0.91;90.25
56950;BME280;74437;50.080;19.924;2024-02-26T05:39:01;98069.41;;;1.36;89.80
56950;BME280;74437;50.080;19.924;2024-02-26T05:41:26;98079.00;;;1.44;90.09
56950;BME280;74437;50.080;19.924;2024-02-26T05:43:53;98077.75;;;1.46;90.38
56950;BME280;74437;50.080;19.924;2024-02-26T05:46:19;98084.28;;;1.57;90.53
56950;BME280;74437;50.080;19.924;2024-02-26T05:48:46;98086.91;;;1.64;90.81
56950;BME280;74437;50.080;19.924;2024-02-26T05:51:11;98078.22;;;1.75;91.12
56950;BME280;74437;50.080;19.924;2024-02-26T05:53:37;98078.00;;;1.77;89.72
56950;BME280;74437;50.080;19.924;2024-02-26T05:56:02;98082.88;;;1.87;90.48
56950;BME280;74437;50.080;19.924;2024-02-26T05:58:28;98075.50;;;1.82;89.58
56950;BME280;74437;50.080;19.924;2024-02-26T06:00:54;98087.78;;;1.90;89.20
56950;BME280;74437;50.080;19.924;2024-02-26T06:03:19;98087.34;;;1.93;89.65
56950;BME280;74437;50.080;19.924;2024-02-26T06:05:46;98093.31;;;1.95;88.98
56950;BME280;74437;50.080;19.924;2024-02-26T06:08:11;98092.28;;;1.96;89.22
56950;BME280;74437;50.080;19.924;2024-02-26T06:10:36;98100.91;;;1.98;88.84
56950;BME280;74437;50.080;19.924;2024-02-26T06:13:02;98102.50;;;2.06;88.37
56950;BME280;74437;50.080;19.924;2024-02-26T06:15:27;98083.84;;;2.25;90.36
56950;BME280;74437;50.080;19.924;2024-02-26T06:17:52;98086.16;;;2.21;88.72
56950;BME280;74437;50.080;19.924;2024-02-26T06:20:18;98092.59;;;2.38;89.80
56950;BME280;74437;50.080;19.924;2024-02-26T06:22:43;98098.88;;;2.51;88.15
56950;BME280;74437;50.080;19.924;2024-02-26T06:25:08;98084.81;;;2.56;87.52
56950;BME280;74437;50.080;19.924;2024-02-26T06:27:34;98103.22;;;2.71;86.48
56950;BME280;74437;50.080;19.924;2024-02-26T06:30:00;98088.69;;;2.60;85.83
56950;BME280;74437;50.080;19.924;2024-02-26T06:32:26;98053.81;;;2.22;86.06
56950;BME280;74437;50.080;19.924;2024-02-26T06:34:53;98095.16;;;2.52;86.83
56950;BME280;74437;50.080;19.924;2024-02-26T06:37:18;98107.97;;;2.68;86.45
56950;BME280;74437;50.080;19.924;2024-02-26T06:39:44;98116.03;;;2.87;86.59
56950;BME280;74437;50.080;19.924;2024-02-26T06:42:09;98114.66;;;3.03;85.49
56950;BME280;74437;50.080;19.924;2024-02-26T06:44:34;98118.22;;;2.97;83.92
56950;BME280;74437;50.080;19.924;2024-02-26T06:47:01;98113.00;;;3.02;83.85
56950;BME280;74437;50.080;19.924;2024-02-26T06:49:27;98103.66;;;3.11;83.79
56950;BME280;74437;50.080;19.924;2024-02-26T06:51:53;98060.31;;;2.96;84.03
56950;BME280;74437;50.080;19.924;2024-02-26T06:54:19;98107.00;;;3.44;83.68
56950;BME280;74437;50.080;19.924;2024-02-26T06:56:44;98100.78;;;3.43;82.91
56950;BME280;74437;50.080;19.924;2024-02-26T06:59:09;98099.78;;;3.75;82.53
56950;BME280;74437;50.080;19.924;2024-02-26T07:01:34;98124.69;;;4.37;81.64
56950;BME280;74437;50.080;19.924;2024-02-26T07:04:00;98083.25;;;4.44;80.10
56950;BME280;74437;50.080;19.924;2024-02-26T07:06:26;98105.81;;;4.67;79.55
56950;BME280;74437;50.080;19.924;2024-02-26T07:08:52;98126.72;;;4.77;79.67
56950;BME280;74437;50.080;19.924;2024-02-26T07:11:17;98127.38;;;5.32;78.78
56950;BME280;74437;50.080;19.924;2024-02-26T07:13:45;98116.94;;;5.88;76.68
56950;BME280;74437;50.080;19.924;2024-02-26T07:16:10;98083.06;;;5.75;75.48
56950;BME280;74437;50.080;19.924;2024-02-26T07:18:35;98101.06;;;6.50;73.65
56950;BME280;74437;50.080;19.924;2024-02-26T07:21:02;98120.31;;;6.59;74.33
56950;BME280;74437;50.080;19.924;2024-02-26T07:23:27;98130.59;;;6.79;74.51
56950;BME280;74437;50.080;19.924;2024-02-26T07:25:53;98109.78;;;8.62;68.64
56950;BME280;74437;50.080;19.924;2024-02-26T07:28:19;98106.56;;;8.66;67.37
56950;BME280;74437;50.080;19.924;2024-02-26T07:30:44;98101.13;;;7.78;69.89
56950;BME280;74437;50.080;19.924;2024-02-26T07:33:10;98104.91;;;7.55;71.21
56950;BME280;74437;50.080;19.924;2024-02-26T07:35:35;98107.25;;;7.46;71.86
56950;BME280;74437;50.080;19.924;2024-02-26T07:38:01;98113.28;;;7.31;71.65
56950;BME280;74437;50.080;19.924;2024-02-26T07:40:27;98103.06;;;7.33;72.27
56950;BME280;74437;50.080;19.924;2024-02-26T07:42:52;98081.22;;;7.12;72.09
56950;BME280;74437;50.080;19.924;2024-02-26T07:45:17;98074.25;;;7.17;72.60
56950;BME280;74437;50.080;19.924;2024-02-26T07:47:46;98103.50;;;7.47;71.93
56950;BME280;74437;50.080;19.924;2024-02-26T07:50:11;98106.03;;;7.14;72.91
56950;BME280;74437;50.080;19.924;2024-02-26T07:52:37;98107.88;;;6.92;73.29
56950;BME280;74437;50.080;19.924;2024-02-26T07:55:03;98112.41;;;6.86;74.18
56950;BME280;74437;50.080;19.924;2024-02-26T07:57:28;98089.63;;;6.60;74.92
56950;BME280;74437;50.080;19.924;2024-02-26T07:59:54;98091.34;;;6.49;75.61
56950;BME280;74437;50.080;19.924;2024-02-26T08:02:20;98125.72;;;6.59;75.53
56950;BME280;74437;50.080;19.924;2024-02-26T08:04:47;98112.66;;;6.50;75.39
56950;BME280;74437;50.080;19.924;2024-02-26T08:07:12;98115.25;;;6.62;75.92
56950;BME280;74437;50.080;19.924;2024-02-26T08:09:38;98098.94;;;6.52;75.95
56950;BME280;74437;50.080;19.924;2024-02-26T08:12:03;98118.88;;;6.51;76.37
56950;BME280;74437;50.080;19.924;2024-02-26T08:14:29;98120.31;;;6.59;76.10
56950;BME280;74437;50.080;19.924;2024-02-26T08:16:54;98119.44;;;6.70;76.04
56950;BME280;74437;50.080;19.924;2024-02-26T08:19:19;98125.88;;;6.69;75.95
56950;BME280;74437;50.080;19.924;2024-02-26T08:21:44;98118.59;;;6.69;75.42
56950;BME280;74437;50.080;19.924;2024-02-26T08:24:10;98114.19;;;6.80;76.06
56950;BME280;74437;50.080;19.924;2024-02-26T08:26:35;98118.59;;;6.87;75.37
56950;BME280;74437;50.080;19.924;2024-02-26T08:29:01;98128.38;;;6.93;75.45
56950;BME280;74437;50.080;19.924;2024-02-26T08:31:26;98133.94;;;7.03;75.27
56950;BME280;74437;50.080;19.924;2024-02-26T08:33:52;98124.41;;;7.18;74.82
56950;BME280;74437;50.080;19.924;2024-02-26T08:36:18;98115.53;;;7.17;74.67
56950;BME280;74437;50.080;19.924;2024-02-26T08:38:43;98114.88;;;7.10;75.24
56950;BME280;74437;50.080;19.924;2024-02-26T08:41:08;98109.47;;;7.10;75.13
56950;BME280;74437;50.080;19.924;2024-02-26T08:43:34;98106.59;;;7.17;75.17
56950;BME280;74437;50.080;19.924;2024-02-26T08:45:59;98120.66;;;7.41;74.61
56950;BME280;74437;50.080;19.924;2024-02-26T08:48:25;98099.00;;;7.53;74.20
56950;BME280;74437;50.080;19.924;2024-02-26T08:50:50;98092.75;;;7.74;73.21
56950;BME280;74437;50.080;19.924;2024-02-26T08:53:16;98109.03;;;8.07;72.79
56950;BME280;74437;50.080;19.924;2024-02-26T08:55:41;98092.13;;;8.49;72.16
56950;BME280;74437;50.080;19.924;2024-02-26T08:58:07;98083.28;;;9.02;69.78
56950;BME280;74437;50.080;19.924;2024-02-26T09:00:32;98102.94;;;9.35;69.05
56950;BME280;74437;50.080;19.924;2024-02-26T09:02:57;98037.25;;;8.87;69.87
56950;BME280;74437;50.080;19.924;2024-02-26T09:05:23;98097.00;;;9.38;69.29
56950;BME280;74437;50.080;19.924;2024-02-26T09:07:48;98095.53;;;9.84;68.23
56950;BME280;74437;50.080;19.924;2024-02-26T09:10:15;98093.72;;;10.31;67.43
56950;BME280;74437;50.080;19.924;2024-02-26T09:12:40;98091.00;;;10.83;66.59
56950;BME280;74437;50.080;19.924;2024-02-26T09:15:06;98060.13;;;10.37;66.42
56950;BME280;74437;50.080;19.924;2024-02-26T09:17:32;98096.16;;;10.38;67.55
56950;BME280;74437;50.080;19.924;2024-02-26T09:19:57;98099.41;;;10.30;68.13
56950;BME280;74437;50.080;19.924;2024-02-26T09:22:23;98101.81;;;10.16;69.16
56950;BME280;74437;50.080;19.924;2024-02-26T09:24:48;98071.50;;;10.13;68.61
56950;BME280;74437;50.080;19.924;2024-02-26T09:27:15;98092.13;;;10.46;68.55
56950;BME280;74437;50.080;19.924;2024-02-26T09:29:40;98084.00;;;10.51;68.62
56950;BME280;74437;50.080;19.924;2024-02-26T09:32:06;98096.47;;;10.62;68.46
56950;BME280;74437;50.080;19.924;2024-02-26T09:34:31;98072.06;;;10.72;67.94
56950;BME280;74437;50.080;19.924;2024-02-26T09:36:57;98085.63;;;10.67;67.90
56950;BME280;74437;50.080;19.924;2024-02-26T09:39:22;98101.31;;;10.81;67.55
56950;BME280;74437;50.080;19.924;2024-02-26T09:41:48;98104.56;;;10.83;67.66
56950;BME280;74437;50.080;19.924;2024-02-26T09:44:18;98100.78;;;10.84;67.15
56950;BME280;74437;50.080;19.924;2024-02-26T09:46:49;98102.16;;;10.66;68.14
56950;BME280;74437;50.080;19.924;2024-02-26T09:49:19;98104.88;;;10.55;69.02
56950;BME280;74437;50.080;19.924;2024-02-26T09:51:49;98104.59;;;10.62;68.51
56950;BME280;74437;50.080;19.924;2024-02-26T09:54:16;98103.53;;;10.74;68.69
56950;BME280;74437;50.080;19.924;2024-02-26T09:56:42;98096.94;;;11.11;67.46
56950;BME280;74437;50.080;19.924;2024-02-26T09:59:10;98103.38;;;11.36;66.61
56950;BME280;74437;50.080;19.924;2024-02-26T10:01:38;98092.19;;;11.47;66.04
56950;BME280;74437;50.080;19.924;2024-02-26T10:04:06;98092.94;;;11.64;65.78
56950;BME280;74437;50.080;19.924;2024-02-26T10:06:33;98085.84;;;11.73;65.30
56950;BME280;74437;50.080;19.924;2024-02-26T10:08:59;98073.38;;;11.72;65.83
56950;BME280;74437;50.080;19.924;2024-02-26T10:11:25;98078.41;;;12.39;64.30
56950;BME280;74437;50.080;19.924;2024-02-26T10:13:52;98082.53;;;12.95;62.70
56950;BME280;74437;50.080;19.924;2024-02-26T10:16:17;98030.38;;;12.59;62.45
56950;BME280;74437;50.080;19.924;2024-02-26T10:18:46;98082.72;;;13.04;62.20
56950;BME280;74437;50.080;19.924;2024-02-26T10:21:12;98062.34;;;13.02;62.07
56950;BME280;74437;50.080;19.924;2024-02-26T10:23:37;98084.03;;;12.83;62.52
56950;BME280;74437;50.080;19.924;2024-02-26T10:26:03;98078.59;;;12.83;61.85
56950;BME280;74437;50.080;19.924;2024-02-26T10:28:29;98087.81;;;12.52;63.41
56950;BME280;74437;50.080;19.924;2024-02-26T10:30:55;98080.56;;;12.72;62.81
56950;BME280;74437;50.080;19.924;2024-02-26T10:33:20;98046.78;;;12.78;62.16
56950;BME280;74437;50.080;19.924;2024-02-26T10:35:47;98042.41;;;13.06;61.76
56950;BME280;74437;50.080;19.924;2024-02-26T10:38:12;98081.94;;;14.29;58.61
56950;BME280;74437;50.080;19.924;2024-02-26T10:40:38;98076.97;;;16.09;53.35
56950;BME280;74437;50.080;19.924;2024-02-26T10:43:04;98074.19;;;15.72;52.99
56950;BME280;74437;50.080;19.924;2024-02-26T10:45:29;98076.03;;;15.35;54.34
56950;BME280;74437;50.080;19.924;2024-02-26T10:47:54;98063.69;;;14.63;55.74
56950;BME280;74437;50.080;19.924;2024-02-26T10:50:20;98070.50;;;16.05;53.05
56950;BME280;74437;50.080;19.924;2024-02-26T10:52:45;98066.66;;;16.97;50.51
56950;BME280;74437;50.080;19.924;2024-02-26T10:55:17;98050.78;;;17.75;48.94
56950;BME280;74437;50.080;19.924;2024-02-26T10:57:45;98046.75;;;17.81;47.74
56950;BME280;74437;50.080;19.924;2024-02-26T11:00:15;98054.88;;;18.95;46.87
56950;BME280;74437;50.080;19.924;2024-02-26T11:02:41;98052.19;;;19.64;45.09
56950;BME280;74437;50.080;19.924;2024-02-26T11:05:07;98049.41;;;18.95;45.01
56950;BME280;74437;50.080;19.924;2024-02-26T11:07:36;98037.28;;;19.05;45.70
56950;BME280;74437;50.080;19.924;2024-02-26T11:10:03;98046.84;;;17.49;48.19
56950;BME280;74437;50.080;19.924;2024-02-26T11:12:30;98052.03;;;15.74;52.45
56950;BME280;74437;50.080;19.924;2024-02-26T11:14:56;98039.75;;;15.35;53.62
56950;BME280;74437;50.080;19.924;2024-02-26T11:17:26;98047.94;;;15.21;54.10
56950;BME280;74437;50.080;19.924;2024-02-26T11:19:53;98039.72;;;14.59;55.41
56950;BME280;74437;50.080;19.924;2024-02-26T11:22:20;98043.78;;;14.29;56.38
56950;BME280;74437;50.080;19.924;2024-02-26T11:24:47;98033.63;;;14.35;56.66
56950;BME280;74437;50.080;19.924;2024-02-26T11:27:13;98031.88;;;14.58;56.33
56950;BME280;74437;50.080;19.924;2024-02-26T11:29:47;98036.53;;;14.38;57.22
56950;BME280;74437;50.080;19.924;2024-02-26T11:32:14;97989.56;;;14.27;56.77
56950;BME280;74437;50.080;19.924;2024-02-26T11:34:40;98036.78;;;14.75;55.74
56950;BME280;74437;50.080;19.924;2024-02-26T11:37:13;98035.97;;;14.88;55.92
56950;BME280;74437;50.080;19.924;2024-02-26T11:39:42;98047.00;;;14.83;55.79
56950;BME280;74437;50.080;19.924;2024-02-26T11:42:08;98027.69;;;14.80;55.70
56950;BME280;74437;50.080;19.924;2024-02-26T11:44:34;98029.53;;;14.84;55.59
56950;BME280;74437;50.080;19.924;2024-02-26T11:47:14;98031.13;;;14.85;55.54
56950;BME280;74437;50.080;19.924;2024-02-26T11:49:42;98020.50;;;14.70;56.00
56950;BME280;74437;50.080;19.924;2024-02-26T11:52:08;97993.59;;;14.30;56.85
56950;BME280;74437;50.080;19.924;2024-02-26T11:54:50;98031.19;;;14.66;56.36
56950;BME280;74437;50.080;19.924;2024-02-26T11:57:31;98023.88;;;14.62;56.33
56950;BME280;74437;50.080;19.924;2024-02-26T12:05:11;98025.97;;;14.84;55.55
56950;BME280;74437;50.080;19.924;2024-02-26T12:07:39;98023.31;;;14.79;55.08
56950;BME280;74437;50.080;19.924;2024-02-26T12:12:42;98029.56;;;14.65;53.88
56950;BME280;74437;50.080;19.924;2024-02-26T12:15:08;98028.88;;;14.73;53.90
56950;BME280;74437;50.080;19.924;2024-02-26T12:17:34;98006.72;;;14.61;52.51
56950;BME280;74437;50.080;19.924;2024-02-26T12:20:10;98014.22;;;14.69;54.07
56950;BME280;74437;50.080;19.924;2024-02-26T12:22:38;98002.88;;;14.62;54.53
56950;BME280;74437;50.080;19.924;2024-02-26T12:25:05;97952.31;;;14.37;54.58
56950;BME280;74437;50.080;19.924;2024-02-26T12:27:31;98008.66;;;14.88;54.25
56950;BME280;74437;50.080;19.924;2024-02-26T12:29:56;98016.75;;;14.94;54.46
56950;BME280;74437;50.080;19.924;2024-02-26T12:32:23;98014.16;;;15.02;54.27
56950;BME280;74437;50.080;19.924;2024-02-26T12:34:49;97997.38;;;14.81;53.82
56950;BME280;74437;50.080;19.924;2024-02-26T12:37:15;97996.03;;;14.79;53.64
56950;BME280;74437;50.080;19.924;2024-02-26T12:39:41;98031.94;;;14.86;54.22
56950;BME280;74437;50.080;19.924;2024-02-26T12:42:07;98024.25;;;14.88;54.07
56950;BME280;74437;50.080;19.924;2024-02-26T12:44:32;98020.84;;;14.96;53.96
56950;BME280;74437;50.080;19.924;2024-02-26T12:47:02;97986.22;;;14.92;54.13
56950;BME280;74437;50.080;19.924;2024-02-26T12:49:28;98007.25;;;15.33;53.34
56950;BME280;74437;50.080;19.924;2024-02-26T12:51:53;98015.94;;;15.49;52.97
56950;BME280;74437;50.080;19.924;2024-02-26T12:54:19;98007.84;;;15.58;52.65
56950;BME280;74437;50.080;19.924;2024-02-26T12:56:44;98009.16;;;15.46;53.53
56950;BME280;74437;50.080;19.924;2024-02-26T12:59:10;98018.19;;;15.47;53.87